createdAt,value
2023-05-22T00:00:46.612Z,1.90
2023-05-22T00:03:18.177Z,2.30
2023-05-22T00:05:49.655Z,1.67
2023-05-22T00:08:21.773Z,5.17
2023-05-22T00:10:52.742Z,2.57
2023-05-22T00:13:28.178Z,3.17
2023-05-22T00:15:59.554Z,4.83
2023-05-22T00:18:31.121Z,1.77
2023-05-22T00:21:01.953Z,2.57
2023-05-22T00:23:32.960Z,2.03
2023-05-22T00:26:04.373Z,2.77
2023-05-22T00:28:38.227Z,5.80
2023-05-22T00:31:08.988Z,1.23
2023-05-22T00:33:40.425Z,1.83
2023-05-22T00:36:12.199Z,2.10
2023-05-22T00:38:43.639Z,1.97
2023-05-22T00:41:15.257Z,3.53
2023-05-22T00:43:49.034Z,5.80
2023-05-22T00:46:23.861Z,1.90
2023-05-22T00:48:55.656Z,1.40
2023-05-22T00:51:28.279Z,1.27
2023-05-22T00:54:00.339Z,6.13
2023-05-22T00:56:33.348Z,3.00
2023-05-22T00:59:06.215Z,2.80
2023-05-22T01:01:37.937Z,2.53
2023-05-22T01:04:11.533Z,5.10
2023-05-22T01:06:43.484Z,5.90
2023-05-22T01:09:14.247Z,3.87
2023-05-22T01:11:54.759Z,2.50
2023-05-22T01:14:37.402Z,4.60
2023-05-22T01:17:23.700Z,4.63
2023-05-22T01:20:10.508Z,4.13
2023-05-22T01:23:14.610Z,5.37
2023-05-22T01:26:31.046Z,7.87
2023-05-22T01:29:32.215Z,7.47
2023-05-22T01:32:09.256Z,9.60
2023-05-22T01:34:43.218Z,7.80
2023-05-22T01:37:15.975Z,8.37
2023-05-22T01:39:49.315Z,6.43
2023-05-22T01:42:21.983Z,10.13
2023-05-22T01:44:53.372Z,10.67
2023-05-22T01:47:26.567Z,9.40
2023-05-22T01:49:58.549Z,10.33
2023-05-22T01:52:37.416Z,8.87
2023-05-22T01:55:14.503Z,11.70
2023-05-22T01:57:52.732Z,12.10
2023-05-22T02:00:28.485Z,13.17
2023-05-22T02:03:10.018Z,14.13
2023-05-22T02:05:42.692Z,12.87
2023-05-22T02:08:15.250Z,10.13
2023-05-22T02:10:49.120Z,17.13
2023-05-22T02:13:20.783Z,17.63
2023-05-22T02:15:52.060Z,13.77
2023-05-22T02:18:32.081Z,13.43
2023-05-22T02:21:03.938Z,20.90
2023-05-22T02:23:35.844Z,18.97
2023-05-22T02:26:07.380Z,14.57
2023-05-22T02:28:39.048Z,15.10
2023-05-22T02:31:11.248Z,20.20
2023-05-22T02:36:24.258Z,16.67
2023-05-22T02:38:56.476Z,12.23
2023-05-22T02:41:28.504Z,19.57
2023-05-22T02:43:59.527Z,16.93
2023-05-22T02:46:31.433Z,17.77
2023-05-22T02:49:05.567Z,20.13
2023-05-22T02:51:37.844Z,16.87
2023-05-22T02:54:09.883Z,16.93
2023-05-22T02:56:42.308Z,15.70
2023-05-22T02:59:14.799Z,22.43
2023-05-22T03:01:49.324Z,15.77
2023-05-22T03:04:24.235Z,15.73
2023-05-22T03:06:56.561Z,17.73
2023-05-22T03:09:29.888Z,16.50
2023-05-22T03:12:01.855Z,15.07
2023-05-22T03:14:34.611Z,19.23
2023-05-22T03:17:07.256Z,15.40
2023-05-22T03:19:42.376Z,20.87
2023-05-22T03:22:15.386Z,16.07
2023-05-22T03:24:47.877Z,17.40
2023-05-22T03:27:23.703Z,16.63
2023-05-22T03:32:40.809Z,13.87
2023-05-22T03:35:20.629Z,18.83
2023-05-22T03:37:53.900Z,13.60
2023-05-22T03:48:33.102Z,12.90
2023-05-22T03:51:11.216Z,20.20
2023-05-22T03:53:43.705Z,13.57
2023-05-22T03:56:16.122Z,17.77
2023-05-22T03:58:48.422Z,15.03
2023-05-22T04:01:20.915Z,12.33
2023-05-22T04:03:52.360Z,11.37
2023-05-22T04:06:27.205Z,9.73
2023-05-22T04:08:58.840Z,9.77
2023-05-22T04:11:31.456Z,9.60
2023-05-22T04:14:07.380Z,9.10
2023-05-22T04:16:40.004Z,9.93
2023-05-22T04:19:12.812Z,9.80
2023-05-22T04:21:47.162Z,10.03
2023-05-22T04:24:21.266Z,9.73
2023-05-22T04:26:53.223Z,9.60
2023-05-22T04:29:26.030Z,12.83
2023-05-22T04:31:58.311Z,11.00
2023-05-22T04:34:32.274Z,7.60
2023-05-22T04:37:07.796Z,12.47
2023-05-22T04:39:39.425Z,10.80
2023-05-22T04:42:11.115Z,11.70
2023-05-22T04:44:43.478Z,14.93
2023-05-22T04:47:16.435Z,13.77
2023-05-22T04:49:49.074Z,10.17
2023-05-22T04:52:23.588Z,12.30
2023-05-22T04:54:58.231Z,13.87
2023-05-22T04:57:34.420Z,14.80
2023-05-22T05:00:06.448Z,15.57
2023-05-22T05:02:37.926Z,17.10
2023-05-22T05:05:09.868Z,14.67
2023-05-22T05:07:49.819Z,12.63
2023-05-22T05:10:22.353Z,13.83
2023-05-22T05:12:53.808Z,13.17
2023-05-22T05:15:26.039Z,11.47
2023-05-22T05:17:59.798Z,11.80
2023-05-22T05:20:31.928Z,10.90
2023-05-22T05:23:06.302Z,11.37
2023-05-22T05:25:40.173Z,13.33
2023-05-22T05:28:12.650Z,14.00
2023-05-22T05:52:22.656Z,12.20
2023-05-22T05:54:55.363Z,8.93
2023-05-22T05:57:27.850Z,9.10
2023-05-22T06:00:00.190Z,10.10
2023-05-22T06:02:33.219Z,10.53
2023-05-22T06:05:06.927Z,11.20
2023-05-22T06:07:41.145Z,12.20
2023-05-22T06:10:14.785Z,12.93
2023-05-22T06:12:47.257Z,14.27
2023-05-22T06:15:20.404Z,12.30
2023-05-22T06:17:51.966Z,10.07
2023-05-22T06:20:24.430Z,8.97
2023-05-22T06:22:58.008Z,9.60
2023-05-22T06:25:31.058Z,10.10
2023-05-22T06:28:02.958Z,14.13
2023-05-22T06:30:40.202Z,9.03
2023-05-22T06:33:13.267Z,14.13
2023-05-22T06:35:45.082Z,10.20
2023-05-22T06:38:19.329Z,17.43
2023-05-22T06:40:51.222Z,11.13
2023-05-22T06:43:23.197Z,11.27
2023-05-22T06:45:55.197Z,12.97
2023-05-22T06:48:27.358Z,13.83
2023-05-22T06:50:59.110Z,9.47
2023-05-22T06:53:32.951Z,10.40
2023-05-22T06:56:04.349Z,11.30
2023-05-22T06:58:36.203Z,14.73
2023-05-22T07:01:09.303Z,13.70
2023-05-22T07:03:40.739Z,8.93
2023-05-22T07:06:13.190Z,17.53
2023-05-22T07:08:47.368Z,9.50
2023-05-22T07:11:18.375Z,8.40
2023-05-22T07:13:49.810Z,12.10
2023-05-22T07:16:21.258Z,7.83
2023-05-22T07:18:53.235Z,13.93
2023-05-22T07:21:25.616Z,8.97
2023-05-22T07:23:59.279Z,11.20
2023-05-22T07:26:31.037Z,10.70
2023-05-22T07:29:02.529Z,11.97
2023-05-22T07:31:35.318Z,12.03
2023-05-22T07:34:07.290Z,12.97
2023-05-22T07:36:38.412Z,9.90
2023-05-22T07:39:12.405Z,11.47
2023-05-22T07:41:44.320Z,15.93
2023-05-22T07:44:16.100Z,8.40
2023-05-22T07:46:47.628Z,9.63
2023-05-22T07:49:21.872Z,10.33
2023-05-22T07:51:54.041Z,10.20
2023-05-22T07:54:27.887Z,15.40
2023-05-22T07:56:59.268Z,14.13
2023-05-22T07:59:30.538Z,14.10
2023-05-22T08:02:02.202Z,8.07
2023-05-22T08:04:34.797Z,8.70
2023-05-22T08:07:06.491Z,9.00
2023-05-22T08:09:39.892Z,7.47
2023-05-22T08:12:11.661Z,9.33
2023-05-22T08:14:43.802Z,10.73
2023-05-22T08:17:15.197Z,10.70
2023-05-22T08:19:47.098Z,7.27
2023-05-22T08:22:18.755Z,8.07
2023-05-22T08:24:52.289Z,11.40
2023-05-22T08:27:23.464Z,10.27
2023-05-22T08:29:55.771Z,9.63
2023-05-22T08:32:28.694Z,14.03
2023-05-22T08:35:01.175Z,8.20
2023-05-22T08:37:32.821Z,7.50
2023-05-22T08:40:06.799Z,5.57
2023-05-22T08:42:39.089Z,7.57
2023-05-22T08:45:11.472Z,8.37
2023-05-22T08:47:45.249Z,10.00
2023-05-22T08:50:17.631Z,10.37
2023-05-22T08:52:54.408Z,10.03
2023-05-22T08:55:28.299Z,5.87
2023-05-22T08:58:01.191Z,10.20
2023-05-22T09:00:32.530Z,8.20
2023-05-22T09:03:04.015Z,9.37
2023-05-22T09:05:35.563Z,11.47
2023-05-22T09:08:19.605Z,8.27
2023-05-22T09:10:56.113Z,7.93
2023-05-22T09:13:31.650Z,6.77
2023-05-22T09:16:11.239Z,9.30
2023-05-22T09:18:43.186Z,8.63
2023-05-22T09:21:28.964Z,9.80
2023-05-22T09:24:04.405Z,7.97
2023-05-22T09:26:38.682Z,8.70
2023-05-22T09:29:11.963Z,9.03
2023-05-22T09:31:46.829Z,7.27
2023-05-22T09:34:18.491Z,7.57
2023-05-22T09:36:51.169Z,7.93
2023-05-22T09:39:22.639Z,10.73
2023-05-22T09:41:56.234Z,11.07
2023-05-22T09:44:28.660Z,7.33
2023-05-22T09:47:00.489Z,7.60
2023-05-22T09:49:32.462Z,9.23
2023-05-22T09:52:05.056Z,5.87
2023-05-22T09:54:38.891Z,7.67
2023-05-22T09:57:16.826Z,8.27
2023-05-22T09:59:55.124Z,8.97
2023-05-22T10:02:28.245Z,8.43
2023-05-22T10:05:00.662Z,6.23
2023-05-22T10:07:39.619Z,6.33
2023-05-22T10:10:14.605Z,7.53
2023-05-22T10:12:54.411Z,7.40
2023-05-22T10:15:26.452Z,5.80
2023-05-22T10:17:59.131Z,6.00
2023-05-22T10:20:31.702Z,10.00
2023-05-22T10:23:06.437Z,8.87
2023-05-22T10:25:41.257Z,6.50
2023-05-22T10:28:18.184Z,6.90
2023-05-22T10:30:55.014Z,6.87
2023-05-22T10:33:27.875Z,5.70
2023-05-22T10:36:02.520Z,7.20
2023-05-22T10:38:50.574Z,6.73
2023-05-22T10:41:22.443Z,7.37
2023-05-22T10:43:59.935Z,6.33
2023-05-22T10:46:36.812Z,10.60
2023-05-22T10:49:08.171Z,10.77
2023-05-22T10:51:39.702Z,9.43
2023-05-22T10:54:11.621Z,8.53
2023-05-22T10:56:43.120Z,7.97
2023-05-22T10:59:16.422Z,10.03
2023-05-22T11:01:47.932Z,8.83
2023-05-22T11:04:20.375Z,10.50
2023-05-22T11:06:53.522Z,11.90
2023-05-22T11:09:32.299Z,12.87
2023-05-22T11:12:23.785Z,6.87
2023-05-22T11:14:58.912Z,12.60
2023-05-22T11:17:32.362Z,9.13
2023-05-22T11:20:06.259Z,12.00
2023-05-22T11:22:42.812Z,9.67
2023-05-22T11:25:18.674Z,9.93
2023-05-22T11:27:52.452Z,10.83
2023-05-22T11:30:31.737Z,7.13
2023-05-22T11:33:04.738Z,11.47
2023-05-22T11:35:36.798Z,9.63
2023-05-22T11:38:09.541Z,8.17
2023-05-22T11:40:42.620Z,10.80
2023-05-22T11:43:14.211Z,7.83
2023-05-22T11:45:48.168Z,9.90
2023-05-22T11:48:23.415Z,12.43
2023-05-22T11:50:55.431Z,10.67
2023-05-22T11:53:27.407Z,10.60
2023-05-22T11:56:00.062Z,10.07
2023-05-22T11:58:32.035Z,9.50
2023-05-22T12:01:06.390Z,11.87
2023-05-22T12:03:37.850Z,8.87
2023-05-22T12:06:09.803Z,9.20
2023-05-22T12:08:41.019Z,12.47
2023-05-22T12:11:15.054Z,8.43
2023-05-22T12:13:46.602Z,8.70
2023-05-22T12:16:28.189Z,7.10
2023-05-22T12:18:59.713Z,10.67
2023-05-22T12:21:31.445Z,8.23
2023-05-22T12:24:06.265Z,9.43
2023-05-22T12:26:38.224Z,9.97
2023-05-22T12:29:09.397Z,11.17
2023-05-22T12:31:42.820Z,9.77
2023-05-22T12:34:14.185Z,8.13
2023-05-22T12:36:46.840Z,10.80
2023-05-22T12:39:21.170Z,7.13
2023-05-22T12:41:53.231Z,7.20
2023-05-22T12:44:25.004Z,9.47
2023-05-22T12:46:58.901Z,12.57
2023-05-22T12:49:30.180Z,11.33
2023-05-22T12:52:01.620Z,6.23
2023-05-22T12:54:33.492Z,7.53
2023-05-22T12:57:04.806Z,4.60
2023-05-22T12:59:37.999Z,6.27
2023-05-22T13:02:11.839Z,4.83
2023-05-22T13:04:43.227Z,8.03
2023-05-22T13:07:14.695Z,5.10
2023-05-22T13:09:46.082Z,4.93
2023-05-22T13:12:17.971Z,5.30
2023-05-22T13:14:49.564Z,3.90
2023-05-22T13:17:23.648Z,3.90
2023-05-22T13:20:09.942Z,3.57
2023-05-22T13:22:42.029Z,4.57
2023-05-22T13:25:14.884Z,5.83
2023-05-22T13:27:47.427Z,3.70
2023-05-22T13:30:19.532Z,5.03
2023-05-22T13:32:53.252Z,6.50
2023-05-22T13:35:24.927Z,3.97
2023-05-22T13:37:56.673Z,6.80
2023-05-22T13:40:28.943Z,7.57
2023-05-22T13:43:01.344Z,7.03
2023-05-22T13:45:32.711Z,5.07
2023-05-22T13:48:06.283Z,3.37
2023-05-22T13:50:38.105Z,5.53
2023-05-22T13:53:10.487Z,3.57
2023-05-22T13:55:41.731Z,2.90
2023-05-22T13:58:13.673Z,6.63
2023-05-22T14:00:44.594Z,5.73
2023-05-22T14:03:18.455Z,5.07
2023-05-22T14:05:49.843Z,4.77
2023-05-22T14:08:20.832Z,5.03
2023-05-22T14:10:51.566Z,4.03
2023-05-22T14:13:23.415Z,4.77
2023-05-22T14:15:56.103Z,6.83
2023-05-22T14:18:29.852Z,6.87
2023-05-22T14:21:01.606Z,5.97
2023-05-22T14:23:34.591Z,7.83
2023-05-22T14:26:05.304Z,10.33
2023-05-22T14:28:37.352Z,5.53
2023-05-22T14:31:09.553Z,8.70
2023-05-22T14:33:43.471Z,6.70
2023-05-22T14:36:15.495Z,6.03
2023-05-22T14:38:47.655Z,6.67
2023-05-22T14:41:19.432Z,4.77
2023-05-22T14:43:50.921Z,7.00
2023-05-22T14:46:22.480Z,8.20
2023-05-22T14:48:56.063Z,8.30
2023-05-22T14:51:27.593Z,5.47
2023-05-22T14:53:59.175Z,7.03
2023-05-22T14:56:30.675Z,8.27
2023-05-22T14:59:02.601Z,12.90
2023-05-22T15:01:34.184Z,13.70
2023-05-22T15:04:08.016Z,9.47
2023-05-22T15:06:39.894Z,17.07
2023-05-22T15:09:11.142Z,15.60
2023-05-22T15:11:47.093Z,9.80
2023-05-22T15:17:06.660Z,16.33
2023-05-22T15:19:40.519Z,12.80
2023-05-22T15:22:19.533Z,14.63
2023-05-22T15:24:52.435Z,17.57
2023-05-22T15:27:23.846Z,13.57
2023-05-22T15:29:55.550Z,14.20
2023-05-22T15:32:27.064Z,13.27
2023-05-22T15:35:01.480Z,14.83
2023-05-22T15:37:34.824Z,14.70
2023-05-22T15:40:07.634Z,14.17
2023-05-22T15:42:39.040Z,14.23
2023-05-22T15:45:11.511Z,13.27
2023-05-22T15:47:43.540Z,13.83
2023-05-22T15:50:17.359Z,10.50
2023-05-22T15:52:48.103Z,15.07
2023-05-22T15:55:19.637Z,12.93
2023-05-22T15:57:50.601Z,11.50
2023-05-22T16:00:23.340Z,10.77
2023-05-22T16:02:54.888Z,12.47
2023-05-22T16:05:28.591Z,11.50
2023-05-22T16:08:00.001Z,14.00
2023-05-22T16:10:32.030Z,16.80
2023-05-22T16:13:05.895Z,9.27
2023-05-22T16:15:38.841Z,16.87
2023-05-22T16:18:12.311Z,12.53
2023-05-22T16:20:45.874Z,8.07
2023-05-22T16:23:17.304Z,12.37
2023-05-22T16:25:50.732Z,10.07
2023-05-22T16:28:22.530Z,10.33
2023-05-22T16:30:53.563Z,13.93
2023-05-22T16:33:24.424Z,16.77
2023-05-22T16:35:57.084Z,11.03
2023-05-22T16:38:27.843Z,10.93
2023-05-22T16:40:58.899Z,10.03
2023-05-22T16:43:29.611Z,10.27
2023-05-22T16:46:00.880Z,8.10
2023-05-22T16:48:31.642Z,10.43
2023-05-22T16:51:05.096Z,8.87
2023-05-22T16:53:38.153Z,10.77
2023-05-22T16:56:10.405Z,9.87
2023-05-22T16:58:41.522Z,12.93
2023-05-22T17:01:12.622Z,14.77
2023-05-22T17:03:43.620Z,14.77
2023-05-22T17:06:17.835Z,16.23
2023-05-22T17:08:49.662Z,9.57
2023-05-22T17:11:21.220Z,9.83
2023-05-22T17:13:52.364Z,14.73
2023-05-22T17:16:23.209Z,9.47
2023-05-22T17:18:55.085Z,9.57
2023-05-22T17:21:29.051Z,8.27
2023-05-22T17:24:00.295Z,7.27
2023-05-22T17:26:31.979Z,11.97
2023-05-22T17:29:03.351Z,11.60
2023-05-22T17:31:34.202Z,9.57
2023-05-22T17:34:06.561Z,9.03
2023-05-22T17:36:41.503Z,9.87
2023-05-22T17:39:14.012Z,15.17
2023-05-22T17:41:45.431Z,12.90
2023-05-22T17:44:16.420Z,7.27
2023-05-22T17:46:47.132Z,8.27
2023-05-22T17:49:18.445Z,7.73
2023-05-22T17:51:51.887Z,6.70
2023-05-22T17:54:22.823Z,5.87
2023-05-22T17:56:53.560Z,6.13
2023-05-22T17:59:24.972Z,9.40
2023-05-22T18:01:56.200Z,5.27
2023-05-22T18:04:27.114Z,10.40
2023-05-22T18:07:00.368Z,6.73
2023-05-22T18:09:31.940Z,5.27
2023-05-22T18:12:04.437Z,6.83
2023-05-22T18:14:35.913Z,6.97
2023-05-22T18:17:08.794Z,6.63
2023-05-22T18:19:40.203Z,5.47
2023-05-22T18:22:13.518Z,7.67
2023-05-22T18:24:44.926Z,5.83
2023-05-22T18:27:16.386Z,10.07
2023-05-22T18:29:48.066Z,6.57
2023-05-22T18:32:19.093Z,7.77
2023-05-22T18:34:50.706Z,6.90
2023-05-22T18:37:24.191Z,6.97
2023-05-22T18:39:57.436Z,4.00
2023-05-22T18:42:28.931Z,10.27
2023-05-22T18:45:00.393Z,5.73
2023-05-22T18:47:32.897Z,6.90
2023-05-22T18:50:04.858Z,6.63
2023-05-22T18:52:39.507Z,7.20
2023-05-22T18:55:11.678Z,5.93
2023-05-22T18:57:42.802Z,5.40
2023-05-22T19:00:14.814Z,6.43
2023-05-22T19:02:46.140Z,11.00
2023-05-22T19:05:17.892Z,5.63
2023-05-22T19:07:51.839Z,19.50
2023-05-22T19:10:23.281Z,9.23
2023-05-22T19:12:55.213Z,3.63
2023-05-22T19:15:28.799Z,6.07
2023-05-22T19:28:49.440Z,6.40
2023-05-22T19:31:20.876Z,4.83
2023-05-22T19:33:52.687Z,3.60
2023-05-22T19:36:24.457Z,3.80
2023-05-22T19:38:56.479Z,7.80
2023-05-22T19:41:27.795Z,4.47
2023-05-22T19:44:01.405Z,6.83
2023-05-22T19:46:32.985Z,5.77
2023-05-22T19:49:05.770Z,4.67
2023-05-22T19:51:37.743Z,6.97
2023-05-22T19:54:09.280Z,11.70
2023-05-22T19:56:41.025Z,6.23
2023-05-22T19:59:14.589Z,5.00
2023-05-22T20:01:46.017Z,5.30
2023-05-22T20:04:17.959Z,5.13
2023-05-22T20:06:49.776Z,6.43
2023-05-22T20:09:21.491Z,3.83
2023-05-22T20:11:52.987Z,5.93
2023-05-22T20:14:27.373Z,5.43
2023-05-22T20:17:00.047Z,5.50
2023-05-22T20:19:33.556Z,6.20
2023-05-22T20:22:06.408Z,5.37
2023-05-22T20:24:38.509Z,5.03
2023-05-22T20:27:10.940Z,6.47
2023-05-22T20:29:43.686Z,6.80
2023-05-22T20:32:15.419Z,3.87
2023-05-22T20:34:47.299Z,10.07
2023-05-22T20:37:20.091Z,5.20
2023-05-22T20:39:50.986Z,3.40
2023-05-22T20:42:24.089Z,10.63
2023-05-22T20:44:57.239Z,5.23
2023-05-22T20:47:28.682Z,4.80
2023-05-22T20:50:00.265Z,3.37
2023-05-22T20:52:32.684Z,4.50
2023-05-22T20:55:04.403Z,3.93
2023-05-22T20:57:36.829Z,6.00
2023-05-22T21:00:14.830Z,5.30
2023-05-22T21:02:46.377Z,4.73
2023-05-22T21:05:17.786Z,5.60
2023-05-22T21:07:48.889Z,4.93
2023-05-22T21:10:21.064Z,5.60
2023-05-22T21:12:52.123Z,6.73
2023-05-22T21:15:25.768Z,14.43
2023-05-22T21:17:57.553Z,6.30
2023-05-22T21:20:29.466Z,5.80
2023-05-22T21:23:00.504Z,4.53
2023-05-22T21:25:31.815Z,4.27
2023-05-22T21:28:03.438Z,13.63
2023-05-22T21:30:37.531Z,24.23
2023-05-22T21:33:09.195Z,13.97
2023-05-22T21:35:40.770Z,5.73
2023-05-22T21:38:12.136Z,7.37
2023-05-22T21:40:43.794Z,6.13
2023-05-22T21:43:15.506Z,5.97
2023-05-22T21:45:49.169Z,5.13
2023-05-22T21:48:21.181Z,4.80
2023-05-22T22:26:05.564Z,6.03
2023-05-22T22:28:37.592Z,4.33
2023-05-22T22:31:09.120Z,5.73
2023-05-22T22:33:41.238Z,4.40
2023-05-22T22:36:13.302Z,4.70
2023-05-22T22:38:44.700Z,6.10
2023-05-22T22:41:17.847Z,4.90
2023-05-22T22:43:49.769Z,4.23
2023-05-22T22:56:57.421Z,8.40
2023-05-22T22:59:28.835Z,4.63
